sensor_id;sensor_type;location;lat;lon;timestamp;temperature;humidity
21849;DHT22;11089;49.852;19.700;2022-10-26T00:01:53;12.50;1.00
21849;DHT22;11089;49.852;19.700;2022-10-26T00:04:54;12.50;99.90
21849;DHT22;11089;49.852;19.700;2022-10-26T00:07:55;12.40;1.00
21849;DHT22;11089;49.852;19.700;2022-10-26T00:10:58;12.30;1.00
21849;DHT22;11089;49.852;19.700;2022-10-26T00:13:59;12.20;1.00
21849;DHT22;11089;49.852;19.700;2022-10-26T00:17:00;12.20;99.90
21849;DHT22;11089;49.852;19.700;2022-10-26T00:20:01;12.30;1.00
21849;DHT22;11089;49.852;19.700;2022-10-26T00:23:02;12.30;1.00
21849;DHT22;11089;49.852;19.700;2022-10-26T00:26:03;12.30;1.00
21849;DHT22;11089;49.852;19.700;2022-10-26T00:29:05;12.20;1.00
21849;DHT22;11089;49.852;19.700;2022-10-26T00:32:06;12.20;1.00
21849;DHT22;11089;49.852;19.700;2022-10-26T00:35:07;12.30;1.00
21849;DHT22;11089;49.852;19.700;2022-10-26T00:38:08;12.30;99.90
21849;DHT22;11089;49.852;19.700;2022-10-26T00:41:16;12.30;1.00
21849;DHT22;11089;49.852;19.700;2022-10-26T00:47:51;12.30;1.00
21849;DHT22;11089;49.852;19.700;2022-10-26T00:50:54;12.30;99.90
21849;DHT22;11089;49.852;19.700;2022-10-26T00:53:56;12.30;99.90
21849;DHT22;11089;49.852;19.700;2022-10-26T00:56:58;12.30;1.00
21849;DHT22;11089;49.852;19.700;2022-10-26T00:59:59;12.30;99.90
21849;DHT22;11089;49.852;19.700;2022-10-26T01:03:04;12.30;1.00
21849;DHT22;11089;49.852;19.700;2022-10-26T01:06:07;12.30;82.30
21849;DHT22;11089;49.852;19.700;2022-10-26T01:09:10;12.20;1.00
21849;DHT22;11089;49.852;19.700;2022-10-26T01:12:11;12.10;1.00
21849;DHT22;11089;49.852;19.700;2022-10-26T01:15:13;12.10;1.00
21849;DHT22;11089;49.852;19.700;2022-10-26T01:28:12;12.10;1.00
21849;DHT22;11089;49.852;19.700;2022-10-26T01:31:26;12.10;1.00
21849;DHT22;11089;49.852;19.700;2022-10-26T01:34:33;12.20;99.90
21849;DHT22;11089;49.852;19.700;2022-10-26T01:37:40;12.20;99.90
21849;DHT22;11089;49.852;19.700;2022-10-26T01:40:55;12.20;1.00
21849;DHT22;11089;49.852;19.700;2022-10-26T01:44:03;12.00;99.90
21849;DHT22;11089;49.852;19.700;2022-10-26T01:47:06;11.90;1.00
21849;DHT22;11089;49.852;19.700;2022-10-26T01:50:09;11.80;99.90
21849;DHT22;11089;49.852;19.700;2022-10-26T01:53:13;11.70;1.00
21849;DHT22;11089;49.852;19.700;2022-10-26T01:56:20;11.70;1.00
21849;DHT22;11089;49.852;19.700;2022-10-26T02:03:04;11.60;99.90
21849;DHT22;11089;49.852;19.700;2022-10-26T02:06:18;11.60;99.90
21849;DHT22;11089;49.852;19.700;2022-10-26T02:16:30;11.60;1.00
21849;DHT22;11089;49.852;19.700;2022-10-26T02:22:44;11.50;1.00
21849;DHT22;11089;49.852;19.700;2022-10-26T02:25:50;11.50;1.00
21849;DHT22;11089;49.852;19.700;2022-10-26T02:28:56;11.60;1.00
21849;DHT22;11089;49.852;19.700;2022-10-26T02:32:00;11.60;99.90
21849;DHT22;11089;49.852;19.700;2022-10-26T02:35:02;11.50;1.00
21849;DHT22;11089;49.852;19.700;2022-10-26T02:38:08;11.40;1.00
21849;DHT22;11089;49.852;19.700;2022-10-26T02:41:10;11.40;1.00
21849;DHT22;11089;49.852;19.700;2022-10-26T02:44:22;11.40;99.90
21849;DHT22;11089;49.852;19.700;2022-10-26T02:47:24;11.40;99.90
21849;DHT22;11089;49.852;19.700;2022-10-26T02:50:34;11.40;1.00
21849;DHT22;11089;49.852;19.700;2022-10-26T02:56:51;11.50;99.90
21849;DHT22;11089;49.852;19.700;2022-10-26T02:59:54;11.50;91.10
21849;DHT22;11089;49.852;19.700;2022-10-26T03:02:57;11.40;99.90
21849;DHT22;11089;49.852;19.700;2022-10-26T03:05:58;11.40;1.00
21849;DHT22;11089;49.852;19.700;2022-10-26T03:08:59;11.40;1.00
21849;DHT22;11089;49.852;19.700;2022-10-26T03:12:00;11.50;1.00
21849;DHT22;11089;49.852;19.700;2022-10-26T03:15:02;11.50;99.90
21849;DHT22;11089;49.852;19.700;2022-10-26T03:18:04;11.50;1.00
21849;DHT22;11089;49.852;19.700;2022-10-26T03:21:05;11.50;99.90
21849;DHT22;11089;49.852;19.700;2022-10-26T03:24:06;11.40;1.00
21849;DHT22;11089;49.852;19.700;2022-10-26T03:27:07;11.30;1.00
21849;DHT22;11089;49.852;19.700;2022-10-26T03:30:09;11.40;1.00
21849;DHT22;11089;49.852;19.700;2022-10-26T03:33:10;11.30;1.00
21849;DHT22;11089;49.852;19.700;2022-10-26T03:36:11;11.30;99.90
21849;DHT22;11089;49.852;19.700;2022-10-26T03:39:12;11.30;1.00
21849;DHT22;11089;49.852;19.700;2022-10-26T03:42:13;11.30;1.00
21849;DHT22;11089;49.852;19.700;2022-10-26T03:45:14;11.30;99.90
21849;DHT22;11089;49.852;19.700;2022-10-26T03:48:15;11.30;99.90
21849;DHT22;11089;49.852;19.700;2022-10-26T03:51:16;11.10;99.90
21849;DHT22;11089;49.852;19.700;2022-10-26T03:54:16;11.10;99.90
21849;DHT22;11089;49.852;19.700;2022-10-26T03:57:18;11.10;99.90
21849;DHT22;11089;49.852;19.700;2022-10-26T04:00:19;11.00;99.90
21849;DHT22;11089;49.852;19.700;2022-10-26T04:03:20;10.90;99.90
21849;DHT22;11089;49.852;19.700;2022-10-26T04:06:20;10.90;99.90
21849;DHT22;11089;49.852;19.700;2022-10-26T04:09:21;10.90;1.00
21849;DHT22;11089;49.852;19.700;2022-10-26T04:12:22;10.80;1.00
21849;DHT22;11089;49.852;19.700;2022-10-26T04:15:23;10.70;1.00
21849;DHT22;11089;49.852;19.700;2022-10-26T04:18:24;10.80;1.00
21849;DHT22;11089;49.852;19.700;2022-10-26T04:21:25;10.80;1.00
21849;DHT22;11089;49.852;19.700;2022-10-26T04:24:26;10.70;1.00
21849;DHT22;11089;49.852;19.700;2022-10-26T04:27:27;10.60;1.00
21849;DHT22;11089;49.852;19.700;2022-10-26T04:30:28;10.60;1.00
21849;DHT22;11089;49.852;19.700;2022-10-26T04:33:29;10.60;1.00
21849;DHT22;11089;49.852;19.700;2022-10-26T04:36:30;10.50;1.00
21849;DHT22;11089;49.852;19.700;2022-10-26T04:39:31;10.40;1.00
21849;DHT22;11089;49.852;19.700;2022-10-26T04:42:43;10.30;1.00
21849;DHT22;11089;49.852;19.700;2022-10-26T04:45:44;10.20;1.00
21849;DHT22;11089;49.852;19.700;2022-10-26T04:48:47;10.20;1.00
21849;DHT22;11089;49.852;19.700;2022-10-26T04:51:48;10.00;1.00
21849;DHT22;11089;49.852;19.700;2022-10-26T04:54:49;9.90;1.00
21849;DHT22;11089;49.852;19.700;2022-10-26T04:57:50;9.90;1.00
21849;DHT22;11089;49.852;19.700;2022-10-26T05:00:50;10.00;1.00
21849;DHT22;11089;49.852;19.700;2022-10-26T05:03:51;10.00;1.00
21849;DHT22;11089;49.852;19.700;2022-10-26T05:06:52;10.00;1.00
21849;DHT22;11089;49.852;19.700;2022-10-26T05:09:53;10.00;1.00
21849;DHT22;11089;49.852;19.700;2022-10-26T05:12:55;10.00;1.00
21849;DHT22;11089;49.852;19.700;2022-10-26T05:15:57;10.00;1.00
21849;DHT22;11089;49.852;19.700;2022-10-26T05:18:57;10.10;1.00
21849;DHT22;11089;49.852;19.700;2022-10-26T05:21:58;10.10;1.00
21849;DHT22;11089;49.852;19.700;2022-10-26T05:24:59;10.00;1.00
21849;DHT22;11089;49.852;19.700;2022-10-26T05:28:02;10.00;1.00
21849;DHT22;11089;49.852;19.700;2022-10-26T05:31:04;10.00;1.00
21849;DHT22;11089;49.852;19.700;2022-10-26T05:34:05;10.00;1.00
21849;DHT22;11089;49.852;19.700;2022-10-26T05:37:05;10.00;1.00
21849;DHT22;11089;49.852;19.700;2022-10-26T05:40:07;10.10;1.00
21849;DHT22;11089;49.852;19.700;2022-10-26T05:43:08;10.10;1.00
21849;DHT22;11089;49.852;19.700;2022-10-26T05:46:09;10.00;1.00
21849;DHT22;11089;49.852;19.700;2022-10-26T05:49:10;10.00;1.00
21849;DHT22;11089;49.852;19.700;2022-10-26T05:52:11;9.90;1.00
21849;DHT22;11089;49.852;19.700;2022-10-26T05:55:17;9.90;1.00
21849;DHT22;11089;49.852;19.700;2022-10-26T05:58:18;9.90;1.00
21849;DHT22;11089;49.852;19.700;2022-10-26T06:01:31;9.90;1.00
21849;DHT22;11089;49.852;19.700;2022-10-26T06:04:43;9.90;1.00
21849;DHT22;11089;49.852;19.700;2022-10-26T06:07:47;9.90;1.00
21849;DHT22;11089;49.852;19.700;2022-10-26T06:10:49;9.90;1.00
21849;DHT22;11089;49.852;19.700;2022-10-26T06:13:50;9.80;1.00
21849;DHT22;11089;49.852;19.700;2022-10-26T06:27:09;9.80;1.00
21849;DHT22;11089;49.852;19.700;2022-10-26T06:30:12;9.80;1.00
21849;DHT22;11089;49.852;19.700;2022-10-26T06:33:14;9.90;16.00
21849;DHT22;11089;49.852;19.700;2022-10-26T06:36:23;9.80;1.00
21849;DHT22;11089;49.852;19.700;2022-10-26T06:39:30;9.70;1.00
21849;DHT22;11089;49.852;19.700;2022-10-26T06:42:31;9.80;1.20
21849;DHT22;11089;49.852;19.700;2022-10-26T06:45:33;9.90;26.80
21849;DHT22;11089;49.852;19.700;2022-10-26T06:55:13;10.20;1.00
21849;DHT22;11089;49.852;19.700;2022-10-26T06:58:17;10.20;13.10
21849;DHT22;11089;49.852;19.700;2022-10-26T07:01:18;10.30;75.80
21849;DHT22;11089;49.852;19.700;2022-10-26T07:04:19;10.30;57.20
21849;DHT22;11089;49.852;19.700;2022-10-26T07:07:25;10.30;73.90
21849;DHT22;11089;49.852;19.700;2022-10-26T07:10:27;10.40;55.30
21849;DHT22;11089;49.852;19.700;2022-10-26T07:13:28;10.50;54.90
21849;DHT22;11089;49.852;19.700;2022-10-26T07:16:28;10.60;13.90
21849;DHT22;11089;49.852;19.700;2022-10-26T07:19:29;10.70;9.30
21849;DHT22;11089;49.852;19.700;2022-10-26T07:22:30;10.90;18.70
21849;DHT22;11089;49.852;19.700;2022-10-26T07:25:32;11.10;8.70
21849;DHT22;11089;49.852;19.700;2022-10-26T07:28:33;11.30;1.00
21849;DHT22;11089;49.852;19.700;2022-10-26T07:31:36;11.50;1.00
21849;DHT22;11089;49.852;19.700;2022-10-26T07:34:36;11.80;1.00
21849;DHT22;11089;49.852;19.700;2022-10-26T07:37:37;12.20;1.00
21849;DHT22;11089;49.852;19.700;2022-10-26T07:40:38;12.80;1.00
21849;DHT22;11089;49.852;19.700;2022-10-26T07:43:39;13.20;99.90
21849;DHT22;11089;49.852;19.700;2022-10-26T07:46:40;13.60;99.90
21849;DHT22;11089;49.852;19.700;2022-10-26T07:49:41;13.90;99.90
21849;DHT22;11089;49.852;19.700;2022-10-26T07:52:42;14.20;99.90
21849;DHT22;11089;49.852;19.700;2022-10-26T07:55:52;14.20;99.90
21849;DHT22;11089;49.852;19.700;2022-10-26T07:58:54;14.30;1.00
21849;DHT22;11089;49.852;19.700;2022-10-26T08:01:55;14.30;99.90
21849;DHT22;11089;49.852;19.700;2022-10-26T08:04:56;14.20;1.00
21849;DHT22;11089;49.852;19.700;2022-10-26T08:07:57;14.30;99.90
21849;DHT22;11089;49.852;19.700;2022-10-26T08:10:58;14.60;1.00
21849;DHT22;11089;49.852;19.700;2022-10-26T08:13:59;14.90;1.00
21849;DHT22;11089;49.852;19.700;2022-10-26T08:17:00;15.50;1.00
21849;DHT22;11089;49.852;19.700;2022-10-26T08:20:01;16.00;99.90
21849;DHT22;11089;49.852;19.700;2022-10-26T08:23:02;16.40;1.00
21849;DHT22;11089;49.852;19.700;2022-10-26T08:26:06;16.80;99.90
21849;DHT22;11089;49.852;19.700;2022-10-26T08:29:07;16.80;1.00
21849;DHT22;11089;49.852;19.700;2022-10-26T08:32:08;16.60;1.00
21849;DHT22;11089;49.852;19.700;2022-10-26T08:35:09;16.70;1.00
21849;DHT22;11089;49.852;19.700;2022-10-26T08:38:10;17.10;1.00
21849;DHT22;11089;49.852;19.700;2022-10-26T08:41:12;17.10;1.00
21849;DHT22;11089;49.852;19.700;2022-10-26T08:44:27;17.50;1.00
21849;DHT22;11089;49.852;19.700;2022-10-26T08:47:34;17.70;1.00
21849;DHT22;11089;49.852;19.700;2022-10-26T08:50:41;17.60;1.00
21849;DHT22;11089;49.852;19.700;2022-10-26T08:57:10;17.50;1.00
21849;DHT22;11089;49.852;19.700;2022-10-26T09:00:16;17.70;1.00
21849;DHT22;11089;49.852;19.700;2022-10-26T09:03:18;17.90;1.00
21849;DHT22;11089;49.852;19.700;2022-10-26T09:12:53;18.30;1.00
21849;DHT22;11089;49.852;19.700;2022-10-26T09:25:28;21.60;99.90
21849;DHT22;11089;49.852;19.700;2022-10-26T09:28:36;22.30;99.90
21849;DHT22;11089;49.852;19.700;2022-10-26T09:31:43;22.90;99.90
21849;DHT22;11089;49.852;19.700;2022-10-26T09:35:00;23.50;99.90
21849;DHT22;11089;49.852;19.700;2022-10-26T09:38:27;24.10;99.90
21849;DHT22;11089;49.852;19.700;2022-10-26T09:41:44;24.70;99.90
21849;DHT22;11089;49.852;19.700;2022-10-26T09:51:37;25.20;99.90
21849;DHT22;11089;49.852;19.700;2022-10-26T09:54:38;25.50;99.90
21849;DHT22;11089;49.852;19.700;2022-10-26T09:58:01;25.70;99.90
21849;DHT22;11089;49.852;19.700;2022-10-26T10:01:03;26.00;99.90
21849;DHT22;11089;49.852;19.700;2022-10-26T10:07:16;26.90;99.90
21849;DHT22;11089;49.852;19.700;2022-10-26T10:10:21;27.60;99.90
21849;DHT22;11089;49.852;19.700;2022-10-26T10:13:24;27.90;99.90
21849;DHT22;11089;49.852;19.700;2022-10-26T10:16:26;28.20;99.90
21849;DHT22;11089;49.852;19.700;2022-10-26T10:22:29;28.70;99.90
21849;DHT22;11089;49.852;19.700;2022-10-26T10:25:36;28.90;99.90
21849;DHT22;11089;49.852;19.700;2022-10-26T10:28:39;29.00;99.90
21849;DHT22;11089;49.852;19.700;2022-10-26T10:31:54;28.50;92.70
21849;DHT22;11089;49.852;19.700;2022-10-26T10:34:59;28.00;91.10
21849;DHT22;11089;49.852;19.700;2022-10-26T10:38:01;27.40;93.40
21849;DHT22;11089;49.852;19.700;2022-10-26T10:41:02;26.90;98.10
21849;DHT22;11089;49.852;19.700;2022-10-26T10:47:28;25.10;99.90
21849;DHT22;11089;49.852;19.700;2022-10-26T10:50:31;24.40;99.90
21849;DHT22;11089;49.852;19.700;2022-10-26T10:53:42;23.80;99.90
21849;DHT22;11089;49.852;19.700;2022-10-26T10:56:50;23.50;99.90
21849;DHT22;11089;49.852;19.700;2022-10-26T11:00:04;23.50;99.90
21849;DHT22;11089;49.852;19.700;2022-10-26T11:03:30;23.10;99.90
21849;DHT22;11089;49.852;19.700;2022-10-26T11:06:35;23.00;99.90
21849;DHT22;11089;49.852;19.700;2022-10-26T11:09:40;22.70;99.90
21849;DHT22;11089;49.852;19.700;2022-10-26T11:13:12;22.30;99.90
21849;DHT22;11089;49.852;19.700;2022-10-26T11:16:22;22.20;99.90
21849;DHT22;11089;49.852;19.700;2022-10-26T11:19:39;21.90;99.90
21849;DHT22;11089;49.852;19.700;2022-10-26T11:26:20;21.60;99.90
21849;DHT22;11089;49.852;19.700;2022-10-26T11:29:25;21.70;99.90
21849;DHT22;11089;49.852;19.700;2022-10-26T11:32:40;21.40;99.90
21849;DHT22;11089;49.852;19.700;2022-10-26T11:42:30;21.30;99.90
21849;DHT22;11089;49.852;19.700;2022-10-26T11:45:38;21.20;99.90
21849;DHT22;11089;49.852;19.700;2022-10-26T11:48:52;21.30;99.90
21849;DHT22;11089;49.852;19.700;2022-10-26T11:52:01;21.90;99.90
21849;DHT22;11089;49.852;19.700;2022-10-26T11:55:04;22.50;99.90
21849;DHT22;11089;49.852;19.700;2022-10-26T11:58:07;22.90;99.90
21849;DHT22;11089;49.852;19.700;2022-10-26T12:01:10;23.10;99.90
21849;DHT22;11089;49.852;19.700;2022-10-26T12:04:12;23.20;99.90
21849;DHT22;11089;49.852;19.700;2022-10-26T12:07:39;23.70;99.90
21849;DHT22;11089;49.852;19.700;2022-10-26T12:10:42;23.70;99.90
21849;DHT22;11089;49.852;19.700;2022-10-26T12:14:05;23.90;99.90
21849;DHT22;11089;49.852;19.700;2022-10-26T12:20:50;24.40;99.90
21849;DHT22;11089;49.852;19.700;2022-10-26T12:23:56;24.60;99.90
21849;DHT22;11089;49.852;19.700;2022-10-26T12:26:59;24.90;99.90
21849;DHT22;11089;49.852;19.700;2022-10-26T12:33:29;24.80;99.90
21849;DHT22;11089;49.852;19.700;2022-10-26T12:36:47;24.80;99.90
21849;DHT22;11089;49.852;19.700;2022-10-26T12:39:48;24.70;99.90
21849;DHT22;11089;49.852;19.700;2022-10-26T12:42:49;24.80;99.90
21849;DHT22;11089;49.852;19.700;2022-10-26T12:53:04;24.20;99.90
21849;DHT22;11089;49.852;19.700;2022-10-26T12:56:12;23.50;99.90
21849;DHT22;11089;49.852;19.700;2022-10-26T13:09:13;22.50;99.90
21849;DHT22;11089;49.852;19.700;2022-10-26T13:12:16;22.40;99.90
21849;DHT22;11089;49.852;19.700;2022-10-26T13:15:50;22.10;99.90
21849;DHT22;11089;49.852;19.700;2022-10-26T13:18:52;21.80;99.90
21849;DHT22;11089;49.852;19.700;2022-10-26T13:21:57;21.60;99.90
21849;DHT22;11089;49.852;19.700;2022-10-26T13:25:03;21.50;99.90
21849;DHT22;11089;49.852;19.700;2022-10-26T13:28:29;21.30;99.90
21849;DHT22;11089;49.852;19.700;2022-10-26T13:34:30;21.20;99.90
21849;DHT22;11089;49.852;19.700;2022-10-26T13:37:32;21.20;99.90
21849;DHT22;11089;49.852;19.700;2022-10-26T13:40:36;20.90;99.90
21849;DHT22;11089;49.852;19.700;2022-10-26T13:43:37;20.60;99.90
21849;DHT22;11089;49.852;19.700;2022-10-26T13:46:40;20.60;99.90
21849;DHT22;11089;49.852;19.700;2022-10-26T13:49:46;20.40;99.90
21849;DHT22;11089;49.852;19.700;2022-10-26T13:52:51;20.20;99.90
21849;DHT22;11089;49.852;19.700;2022-10-26T13:56:00;20.00;99.90
21849;DHT22;11089;49.852;19.700;2022-10-26T13:59:02;19.80;99.90
21849;DHT22;11089;49.852;19.700;2022-10-26T14:02:06;19.60;99.90
21849;DHT22;11089;49.852;19.700;2022-10-26T14:05:10;19.20;99.90
21849;DHT22;11089;49.852;19.700;2022-10-26T14:08:16;19.00;99.90
21849;DHT22;11089;49.852;19.700;2022-10-26T14:11:21;19.20;99.90
21849;DHT22;11089;49.852;19.700;2022-10-26T14:14:28;19.20;99.90
21849;DHT22;11089;49.852;19.700;2022-10-26T14:17:30;19.10;99.90
21849;DHT22;11089;49.852;19.700;2022-10-26T14:20:31;18.80;99.90
21849;DHT22;11089;49.852;19.700;2022-10-26T14:26:47;18.60;99.90
21849;DHT22;11089;49.852;19.700;2022-10-26T14:29:53;18.30;99.90
21849;DHT22;11089;49.852;19.700;2022-10-26T14:32:55;18.10;99.90
21849;DHT22;11089;49.852;19.700;2022-10-26T14:35:56;18.20;99.90
21849;DHT22;11089;49.852;19.700;2022-10-26T14:39:00;17.90;99.90
21849;DHT22;11089;49.852;19.700;2022-10-26T14:42:22;17.80;99.90
21849;DHT22;11089;49.852;19.700;2022-10-26T14:45:35;17.70;1.00
21849;DHT22;11089;49.852;19.700;2022-10-26T14:48:51;17.50;1.00
21849;DHT22;11089;49.852;19.700;2022-10-26T14:52:04;17.40;1.00
21849;DHT22;11089;49.852;19.700;2022-10-26T14:55:15;17.30;1.00
21849;DHT22;11089;49.852;19.700;2022-10-26T14:58:27;17.10;1.00
21849;DHT22;11089;49.852;19.700;2022-10-26T15:01:30;17.10;1.00
21849;DHT22;11089;49.852;19.700;2022-10-26T15:04:36;17.00;1.00
21849;DHT22;11089;49.852;19.700;2022-10-26T15:07:38;16.90;1.00
21849;DHT22;11089;49.852;19.700;2022-10-26T15:13:43;16.70;1.00
21849;DHT22;11089;49.852;19.700;2022-10-26T15:16:51;16.50;1.00
21849;DHT22;11089;49.852;19.700;2022-10-26T15:19:54;16.40;1.00
21849;DHT22;11089;49.852;19.700;2022-10-26T15:22:57;16.30;1.00
21849;DHT22;11089;49.852;19.700;2022-10-26T15:26:00;16.20;1.00
21849;DHT22;11089;49.852;19.700;2022-10-26T15:29:02;15.90;1.00
21849;DHT22;11089;49.852;19.700;2022-10-26T15:32:05;15.80;38.10
21849;DHT22;11089;49.852;19.700;2022-10-26T15:38:19;15.60;96.00
21849;DHT22;11089;49.852;19.700;2022-10-26T15:41:26;15.50;93.10
21849;DHT22;11089;49.852;19.700;2022-10-26T15:44:28;15.40;99.90
21849;DHT22;11089;49.852;19.700;2022-10-26T15:47:32;15.30;99.90
21849;DHT22;11089;49.852;19.700;2022-10-26T15:50:33;15.20;99.90
21849;DHT22;11089;49.852;19.700;2022-10-26T15:53:35;15.00;99.90
21849;DHT22;11089;49.852;19.700;2022-10-26T15:56:36;14.90;99.90
21849;DHT22;11089;49.852;19.700;2022-10-26T15:59:39;14.80;99.90
21849;DHT22;11089;49.852;19.700;2022-10-26T16:02:41;14.70;99.90
21849;DHT22;11089;49.852;19.700;2022-10-26T16:05:43;14.60;99.90
21849;DHT22;11089;49.852;19.700;2022-10-26T16:08:49;14.40;1.00
21849;DHT22;11089;49.852;19.700;2022-10-26T16:11:51;14.40;1.00
21849;DHT22;11089;49.852;19.700;2022-10-26T16:14:52;14.30;1.00
21849;DHT22;11089;49.852;19.700;2022-10-26T16:17:53;14.30;1.00
21849;DHT22;11089;49.852;19.700;2022-10-26T16:20:54;14.20;1.00
21849;DHT22;11089;49.852;19.700;2022-10-26T16:23:55;14.10;1.00
21849;DHT22;11089;49.852;19.700;2022-10-26T16:26:59;14.10;1.00
21849;DHT22;11089;49.852;19.700;2022-10-26T16:30:00;14.00;1.00
21849;DHT22;11089;49.852;19.700;2022-10-26T16:33:01;14.00;1.00
21849;DHT22;11089;49.852;19.700;2022-10-26T16:36:03;13.80;1.00
21849;DHT22;11089;49.852;19.700;2022-10-26T16:39:05;13.70;99.90
21849;DHT22;11089;49.852;19.700;2022-10-26T16:42:06;13.60;99.90
21849;DHT22;11089;49.852;19.700;2022-10-26T16:45:07;13.40;1.00
21849;DHT22;11089;49.852;19.700;2022-10-26T16:48:08;13.40;1.00
21849;DHT22;11089;49.852;19.700;2022-10-26T16:51:20;13.30;1.00
21849;DHT22;11089;49.852;19.700;2022-10-26T16:54:22;13.30;1.00
21849;DHT22;11089;49.852;19.700;2022-10-26T16:57:23;13.20;1.00
21849;DHT22;11089;49.852;19.700;2022-10-26T17:00:24;13.10;99.90
21849;DHT22;11089;49.852;19.700;2022-10-26T17:03:25;13.10;99.90
21849;DHT22;11089;49.852;19.700;2022-10-26T17:06:26;13.10;1.00
21849;DHT22;11089;49.852;19.700;2022-10-26T17:09:27;13.10;28.00
21849;DHT22;11089;49.852;19.700;2022-10-26T17:12:28;13.10;99.90
21849;DHT22;11089;49.852;19.700;2022-10-26T17:15:31;13.00;99.90
21849;DHT22;11089;49.852;19.700;2022-10-26T17:18:32;13.00;1.00
21849;DHT22;11089;49.852;19.700;2022-10-26T17:21:34;12.70;99.90
21849;DHT22;11089;49.852;19.700;2022-10-26T17:24:35;12.60;99.90
21849;DHT22;11089;49.852;19.700;2022-10-26T17:27:36;12.70;99.90
21849;DHT22;11089;49.852;19.700;2022-10-26T17:30:37;12.50;99.90
21849;DHT22;11089;49.852;19.700;2022-10-26T17:33:40;12.50;1.00
21849;DHT22;11089;49.852;19.700;2022-10-26T17:36:42;12.30;1.00
21849;DHT22;11089;49.852;19.700;2022-10-26T17:39:43;12.20;29.80
21849;DHT22;11089;49.852;19.700;2022-10-26T17:42:44;12.30;99.90
21849;DHT22;11089;49.852;19.700;2022-10-26T17:45:45;12.20;99.90
21849;DHT22;11089;49.852;19.700;2022-10-26T17:48:46;12.20;1.00
21849;DHT22;11089;49.852;19.700;2022-10-26T17:51:47;12.20;1.00
21849;DHT22;11089;49.852;19.700;2022-10-26T17:54:48;12.20;99.90
21849;DHT22;11089;49.852;19.700;2022-10-26T17:57:49;12.20;99.90
21849;DHT22;11089;49.852;19.700;2022-10-26T18:00:49;12.10;1.00
21849;DHT22;11089;49.852;19.700;2022-10-26T18:03:51;12.00;99.90
21849;DHT22;11089;49.852;19.700;2022-10-26T18:06:52;12.10;99.90
21849;DHT22;11089;49.852;19.700;2022-10-26T18:09:53;12.10;99.90
21849;DHT22;11089;49.852;19.700;2022-10-26T18:12:54;12.00;1.00
21849;DHT22;11089;49.852;19.700;2022-10-26T18:15:54;11.70;1.00
21849;DHT22;11089;49.852;19.700;2022-10-26T18:19:00;11.60;1.00
21849;DHT22;11089;49.852;19.700;2022-10-26T18:22:02;11.60;14.90
21849;DHT22;11089;49.852;19.700;2022-10-26T18:25:03;11.60;1.00
21849;DHT22;11089;49.852;19.700;2022-10-26T18:28:04;11.60;1.00
21849;DHT22;11089;49.852;19.700;2022-10-26T18:31:07;11.70;99.90
21849;DHT22;11089;49.852;19.700;2022-10-26T18:34:09;11.70;1.00
21849;DHT22;11089;49.852;19.700;2022-10-26T18:37:10;11.80;99.90
21849;DHT22;11089;49.852;19.700;2022-10-26T18:40:11;11.70;99.90
21849;DHT22;11089;49.852;19.700;2022-10-26T18:43:12;11.70;99.90
21849;DHT22;11089;49.852;19.700;2022-10-26T18:46:16;11.50;1.00
21849;DHT22;11089;49.852;19.700;2022-10-26T18:49:18;11.50;99.90
21849;DHT22;11089;49.852;19.700;2022-10-26T18:52:20;11.50;99.90
21849;DHT22;11089;49.852;19.700;2022-10-26T18:55:23;11.50;1.00
21849;DHT22;11089;49.852;19.700;2022-10-26T18:58:27;11.30;60.70
21849;DHT22;11089;49.852;19.700;2022-10-26T19:01:31;11.20;1.00
21849;DHT22;11089;49.852;19.700;2022-10-26T19:04:33;11.10;1.00
21849;DHT22;11089;49.852;19.700;2022-10-26T19:07:34;11.00;1.00
21849;DHT22;11089;49.852;19.700;2022-10-26T19:10:37;11.10;99.90
21849;DHT22;11089;49.852;19.700;2022-10-26T19:13:39;11.10;30.30
21849;DHT22;11089;49.852;19.700;2022-10-26T19:16:40;11.10;1.00
21849;DHT22;11089;49.852;19.700;2022-10-26T19:19:41;11.20;99.90
21849;DHT22;11089;49.852;19.700;2022-10-26T19:22:42;11.00;1.00
21849;DHT22;11089;49.852;19.700;2022-10-26T19:25:43;11.00;1.00
21849;DHT22;11089;49.852;19.700;2022-10-26T19:28:44;10.80;99.90
21849;DHT22;11089;49.852;19.700;2022-10-26T19:31:47;10.90;24.50
21849;DHT22;11089;49.852;19.700;2022-10-26T19:34:49;10.80;1.00
21849;DHT22;11089;49.852;19.700;2022-10-26T19:37:50;10.80;99.90
21849;DHT22;11089;49.852;19.700;2022-10-26T19:41:03;10.80;1.00
21849;DHT22;11089;49.852;19.700;2022-10-26T19:44:04;10.80;1.00
21849;DHT22;11089;49.852;19.700;2022-10-26T19:47:07;10.70;1.00
21849;DHT22;11089;49.852;19.700;2022-10-26T19:50:08;10.70;1.00
21849;DHT22;11089;49.852;19.700;2022-10-26T19:53:09;10.80;1.00
21849;DHT22;11089;49.852;19.700;2022-10-26T19:56:11;10.80;1.00
21849;DHT22;11089;49.852;19.700;2022-10-26T19:59:13;10.90;1.00
21849;DHT22;11089;49.852;19.700;2022-10-26T20:02:14;10.80;99.90
21849;DHT22;11089;49.852;19.700;2022-10-26T20:05:15;10.90;1.00
21849;DHT22;11089;49.852;19.700;2022-10-26T20:08:16;10.90;1.00
21849;DHT22;11089;49.852;19.700;2022-10-26T20:11:19;10.80;99.90
21849;DHT22;11089;49.852;19.700;2022-10-26T20:14:20;10.70;99.90
21849;DHT22;11089;49.852;19.700;2022-10-26T20:17:21;10.80;4.10
21849;DHT22;11089;49.852;19.700;2022-10-26T20:20:22;10.80;1.00
21849;DHT22;11089;49.852;19.700;2022-10-26T20:23:23;10.70;1.00
21849;DHT22;11089;49.852;19.700;2022-10-26T20:26:24;10.60;1.00
21849;DHT22;11089;49.852;19.700;2022-10-26T20:29:25;10.50;99.90
21849;DHT22;11089;49.852;19.700;2022-10-26T20:32:26;10.40;99.90
21849;DHT22;11089;49.852;19.700;2022-10-26T20:35:27;10.40;1.00
21849;DHT22;11089;49.852;19.700;2022-10-26T20:38:28;10.40;1.00
21849;DHT22;11089;49.852;19.700;2022-10-26T20:41:29;10.50;51.80
21849;DHT22;11089;49.852;19.700;2022-10-26T20:44:37;10.60;99.90
21849;DHT22;11089;49.852;19.700;2022-10-26T20:47:39;10.60;1.00
21849;DHT22;11089;49.852;19.700;2022-10-26T20:50:53;10.40;99.90
21849;DHT22;11089;49.852;19.700;2022-10-26T20:54:06;10.30;1.00
21849;DHT22;11089;49.852;19.700;2022-10-26T20:57:15;10.30;99.90
21849;DHT22;11089;49.852;19.700;2022-10-26T21:00:17;10.30;99.90
21849;DHT22;11089;49.852;19.700;2022-10-26T21:03:18;10.30;1.00
21849;DHT22;11089;49.852;19.700;2022-10-26T21:06:19;10.30;99.90
21849;DHT22;11089;49.852;19.700;2022-10-26T21:09:20;10.20;1.00
21849;DHT22;11089;49.852;19.700;2022-10-26T21:12:21;10.20;99.90
21849;DHT22;11089;49.852;19.700;2022-10-26T21:15:22;10.20;99.90
21849;DHT22;11089;49.852;19.700;2022-10-26T21:18:23;10.20;99.90
21849;DHT22;11089;49.852;19.700;2022-10-26T21:21:24;10.10;99.90
21849;DHT22;11089;49.852;19.700;2022-10-26T21:24:25;10.20;99.90